Time;durP1;ratioP1;P1;durP2;ratioP2;P2;SDS_P1;SDS_P2;PMS_P1;PMS_P2;Temp;Humidity;BMP_temperature;BMP_pressure;BME280_temperature;BME280_humidity;BME280_pressure;Samples;Min_cycle;Max_cycle;Signal;HPM_P1;HPM_P2
2020/12/09 00:00:20;;;;;;;16.95;4.75;;;;;;;2.05;83.62;100308.53;4919871;29;20406;-50
2020/12/09 00:02:46;;;;;;;19.13;4.43;;;;;;;2.03;83.79;100313.47;4920158;29;20047;-50
2020/12/09 00:05:13;;;;;;;13.30;3.83;;;;;;;2.03;83.56;100318.94;4920405;29;20111;-52
2020/12/09 00:07:39;;;;;;;14.70;4.80;;;;;;;1.99;83.69;100310.53;4920739;29;20103;-53
2020/12/09 00:10:07;;;;;;;10.82;4.57;;;;;;;1.99;83.72;100318.72;4920455;29;20048;-52
2020/12/09 00:12:34;;;;;;;19.55;4.20;;;;;;;1.96;83.69;100310.34;4919985;29;20495;-48
2020/12/09 00:15:03;;;;;;;18.55;4.85;;;;;;;1.94;84.00;100315.25;4920005;29;20048;-52
2020/12/09 00:17:29;;;;;;;13.80;4.93;;;;;;;1.93;84.04;100317.22;4927060;29;20055;-50
2020/12/09 00:19:57;;;;;;;17.15;4.80;;;;;;;1.91;83.83;100315.88;4937752;29;20046;-52
2020/12/09 00:22:23;;;;;;;15.85;4.47;;;;;;;1.89;84.21;100316.16;4939161;29;20162;-51
2020/12/09 00:24:53;;;;;;;15.50;4.18;;;;;;;1.89;83.97;100315.34;4939742;29;20077;-50
2020/12/09 00:27:20;;;;;;;14.52;4.68;;;;;;;1.87;84.43;100317.56;4938646;29;20071;-49
2020/12/09 00:29:46;;;;;;;13.50;4.18;;;;;;;1.85;84.53;100310.47;4938372;29;20565;-50
2020/12/09 00:32:13;;;;;;;11.77;3.97;;;;;;;1.87;84.44;100315.66;4937979;29;20127;-52
2020/12/09 00:34:39;;;;;;;17.63;4.25;;;;;;;1.88;84.52;100314.53;4939563;29;20111;-49
2020/12/09 00:37:05;;;;;;;13.50;3.53;;;;;;;1.90;84.65;100311.53;4938561;29;20051;-51
2020/12/09 00:39:32;;;;;;;16.83;3.75;;;;;;;1.89;84.53;100321.63;4937269;29;20458;-51
2020/12/09 00:41:58;;;;;;;12.13;3.38;;;;;;;1.89;84.57;100316.16;4938345;29;20065;-51
2020/12/09 00:44:24;;;;;;;11.70;4.35;;;;;;;1.89;84.49;100309.88;4938912;29;20130;-49
2020/12/09 00:46:50;;;;;;;15.30;3.92;;;;;;;1.87;84.29;100307.47;4938528;29;20122;-50
2020/12/09 00:49:19;;;;;;;15.48;5.35;;;;;;;1.90;84.49;100316.97;4938685;29;20467;-50
2020/12/09 00:51:47;;;;;;;17.60;5.88;;;;;;;1.90;84.54;100319.72;4938084;29;20561;-53
2020/12/09 00:54:13;;;;;;;20.92;4.95;;;;;;;1.90;84.15;100317.78;4939184;29;20040;-51
2020/12/09 00:56:43;;;;;;;12.65;3.60;;;;;;;1.91;84.52;100321.34;4938205;29;20035;-48
2020/12/09 00:59:10;;;;;;;17.08;3.97;;;;;;;1.92;84.44;100320.22;4938449;29;20070;-51
2020/12/09 01:01:36;;;;;;;13.40;5.78;;;;;;;1.91;84.56;100310.44;4937684;29;20135;-51
2020/12/09 01:04:04;;;;;;;19.55;5.72;;;;;;;1.93;84.98;100313.66;4937782;29;20047;-50
2020/12/09 01:06:34;;;;;;;13.75;3.47;;;;;;;1.93;84.75;100310.94;4942370;29;20075;-51
2020/12/09 01:09:05;;;;;;;14.15;4.60;;;;;;;1.96;84.60;100307.59;4938331;29;20082;-51
2020/12/09 01:11:32;;;;;;;14.38;4.30;;;;;;;1.97;84.73;100306.47;4936784;29;20121;-53
2020/12/09 01:13:58;;;;;;;16.20;3.95;;;;;;;1.98;84.98;100299.91;4937855;29;20051;-52
2020/12/09 01:16:25;;;;;;;14.13;3.90;;;;;;;2.01;84.89;100312.97;4937379;29;20075;-55
2020/12/09 01:18:51;;;;;;;12.38;3.95;;;;;;;2.04;84.81;100304.97;4938031;29;20085;-51
2020/12/09 01:21:29;;;;;;;11.32;3.95;;;;;;;2.05;85.02;100308.53;4938179;29;20052;-51
2020/12/09 01:23:55;;;;;;;11.98;4.07;;;;;;;2.08;84.52;100297.81;4938387;29;20082;-52
2020/12/09 01:26:21;;;;;;;12.98;3.40;;;;;;;2.10;84.77;100305.69;4937424;29;20127;-52
2020/12/09 01:28:47;;;;;;;11.93;4.60;;;;;;;2.14;84.54;100307.56;4938204;29;20427;-50
2020/12/09 01:31:19;;;;;;;11.23;2.40;;;;;;;2.18;84.92;100302.28;4936908;29;20139;-54
2020/12/09 01:33:45;;;;;;;9.80;3.08;;;;;;;2.27;84.75;100306.78;4938223;29;20043;-53
2020/12/09 01:36:11;;;;;;;12.32;3.22;;;;;;;2.35;84.64;100299.81;4937824;29;20107;-50
2020/12/09 01:38:38;;;;;;;13.48;3.47;;;;;;;2.44;84.54;100306.16;4936455;29;20051;-52
2020/12/09 01:41:04;;;;;;;10.60;2.90;;;;;;;2.53;84.62;100311.75;4937236;29;20103;-51
2020/12/09 01:43:30;;;;;;;9.88;2.50;;;;;;;2.60;84.53;100312.97;4936860;29;20482;-53
2020/12/09 01:45:56;;;;;;;10.05;2.42;;;;;;;2.65;84.60;100312.88;4937266;29;20167;-51
2020/12/09 01:48:23;;;;;;;15.10;2.78;;;;;;;2.70;84.40;100310.03;4937445;29;20126;-51
2020/12/09 01:50:51;;;;;;;17.95;3.53;;;;;;;2.75;84.07;100304.47;4937638;29;20074;-51
2020/12/09 01:53:17;;;;;;;11.52;2.65;;;;;;;2.78;84.17;100309.31;4937678;29;20039;-53
2020/12/09 01:55:46;;;;;;;6.97;2.33;;;;;;;2.81;83.99;100307.91;4937326;29;20040;-49
2020/12/09 01:58:12;;;;;;;15.00;2.55;;;;;;;2.85;83.88;100312.47;4937224;29;20063;-49
2020/12/09 02:00:38;;;;;;;16.80;2.90;;;;;;;2.89;83.87;100308.00;4936992;29;20067;-51
2020/12/09 02:03:05;;;;;;;12.82;2.90;;;;;;;2.89;83.96;100307.19;4935546;29;20048;-51
2020/12/09 02:05:33;;;;;;;9.52;2.45;;;;;;;2.89;83.63;100302.53;4940326;29;20119;-50
2020/12/09 02:08:00;;;;;;;10.60;2.35;;;;;;;2.89;83.80;100308.00;4940688;29;20126;-49
2020/12/09 02:10:27;;;;;;;9.55;2.67;;;;;;;2.88;83.68;100300.13;4936285;29;20040;-48
2020/12/09 02:12:53;;;;;;;6.70;2.47;;;;;;;2.86;83.67;100311.34;4937820;29;20498;-51
2020/12/09 02:15:20;;;;;;;9.88;2.53;;;;;;;2.82;83.62;100302.16;4936116;29;20494;-52
2020/12/09 02:17:46;;;;;;;7.03;2.22;;;;;;;2.79;83.59;100301.94;4917886;29;20068;-52
2020/12/09 02:20:13;;;;;;;9.90;3.33;;;;;;;2.76;83.49;100302.53;4918205;29;20131;-53
2020/12/09 02:22:39;;;;;;;15.05;2.75;;;;;;;2.73;83.06;100298.50;4917874;29;20075;-48
2020/12/09 02:25:05;;;;;;;11.15;3.00;;;;;;;2.67;83.14;100297.00;4918149;29;20044;-48
2020/12/09 02:27:31;;;;;;;8.27;2.17;;;;;;;2.64;83.41;100294.88;4916640;29;20495;-50
2020/12/09 02:29:58;;;;;;;37.33;6.13;;;;;;;2.61;83.22;100300.94;4916779;29;20044;-53
2020/12/09 02:32:24;;;;;;;8.23;2.03;;;;;;;2.58;83.33;100290.59;4917294;29;20040;-53
2020/12/09 02:34:50;;;;;;;11.88;2.83;;;;;;;2.57;83.26;100282.72;4917711;29;20048;-49
2020/12/09 02:37:17;;;;;;;10.40;2.65;;;;;;;2.53;83.13;100282.50;4917517;29;20100;-49
2020/12/09 02:39:44;;;;;;;12.60;2.83;;;;;;;2.50;83.43;100280.38;4917905;29;20075;-49
2020/12/09 02:42:10;;;;;;;9.52;3.30;;;;;;;2.47;83.11;100290.00;4917944;29;20457;-53
2020/12/09 02:44:36;;;;;;;6.22;2.58;;;;;;;2.45;83.46;100278.56;4917718;29;20494;-52
2020/12/09 02:47:02;;;;;;;9.93;3.03;;;;;;;2.44;83.12;100281.59;4916988;29;20132;-51
2020/12/09 02:49:28;;;;;;;8.15;1.95;;;;;;;2.42;83.45;100290.09;4915822;29;20419;-51
2020/12/09 02:51:57;;;;;;;8.20;2.03;;;;;;;2.40;83.37;100284.13;4917389;29;20103;-52
2020/12/09 02:54:24;;;;;;;7.97;2.35;;;;;;;2.40;83.03;100277.84;4918100;29;20060;-52
2020/12/09 02:56:50;;;;;;;10.98;3.63;;;;;;;2.37;83.08;100279.25;4908096;29;20052;-50
2020/12/09 02:59:17;;;;;;;19.73;2.92;;;;;;;2.37;83.06;100284.72;4917598;29;20044;-51
2020/12/09 03:01:43;;;;;;;6.88;1.88;;;;;;;2.35;82.99;100275.22;4916401;29;20471;-52
2020/12/09 03:04:09;;;;;;;7.85;2.88;;;;;;;2.35;82.97;100276.03;4917305;29;20051;-49
2020/12/09 03:06:36;;;;;;;6.80;2.25;;;;;;;2.33;82.85;100280.97;4917038;29;20051;-53
2020/12/09 03:09:03;;;;;;;5.95;2.10;;;;;;;2.32;82.81;100287.56;4917144;29;20502;-49
2020/12/09 03:11:29;;;;;;;11.98;2.70;;;;;;;2.32;83.25;100273.91;4917144;29;20076;-48
2020/12/09 03:13:56;;;;;;;10.35;2.13;;;;;;;2.31;83.03;100277.72;4917053;29;20606;-52
2020/12/09 03:16:23;;;;;;;11.65;2.70;;;;;;;2.31;83.35;100271.47;4916910;29;20048;-51
2020/12/09 03:18:50;;;;;;;8.50;2.10;;;;;;;2.31;82.89;100277.72;4929852;29;20103;-51
2020/12/09 03:21:16;;;;;;;11.23;2.65;;;;;;;2.31;83.27;100279.66;4935043;29;20047;-52
2020/12/09 03:23:43;;;;;;;18.05;3.80;;;;;;;2.30;83.34;100272.59;4936157;29;20052;-52
2020/12/09 03:26:09;;;;;;;12.48;2.20;;;;;;;2.33;82.83;100288.38;4935400;29;20473;-50
2020/12/09 03:28:36;;;;;;;12.80;2.70;;;;;;;2.33;83.20;100278.22;4936036;29;20517;-50
2020/12/09 03:31:04;;;;;;;12.55;2.65;;;;;;;2.31;83.41;100274.19;4934772;29;20099;-49
2020/12/09 03:33:31;;;;;;;8.80;2.35;;;;;;;2.28;82.99;100275.59;4951170;29;20083;-48
2020/12/09 03:35:58;;;;;;;13.05;2.40;;;;;;;2.27;83.15;100268.53;4935816;29;20107;-50
2020/12/09 03:38:24;;;;;;;10.60;3.40;;;;;;;2.25;83.11;100270.75;4936034;29;20051;-52
2020/12/09 03:40:50;;;;;;;7.63;2.35;;;;;;;2.25;83.03;100280.88;4935211;29;20067;-53
2020/12/09 03:43:17;;;;;;;11.32;2.35;;;;;;;2.24;82.97;100276.50;4936368;29;20052;-49
2020/12/09 03:45:43;;;;;;;8.82;2.20;;;;;;;2.23;83.05;100285.81;4934776;29;20494;-50
2020/12/09 03:48:10;;;;;;;7.75;2.20;;;;;;;2.23;83.11;100272.16;4935312;29;20517;-49
2020/12/09 03:50:36;;;;;;;11.32;3.03;;;;;;;2.21;82.99;100267.00;4935440;29;20060;-51
2020/12/09 03:53:03;;;;;;;6.47;2.00;;;;;;;2.19;83.15;100262.97;4936029;29;20063;-50
2020/12/09 03:55:29;;;;;;;11.07;3.75;;;;;;;2.19;82.86;100265.69;4935236;29;20043;-49
2020/12/09 03:57:59;;;;;;;10.80;1.90;;;;;;;2.17;83.26;100248.81;4935921;29;20135;-50
2020/12/09 04:00:25;;;;;;;10.85;2.00;;;;;;;2.17;83.16;100262.44;4918405;29;20044;-53
2020/12/09 04:02:55;;;;;;;6.70;1.95;;;;;;;2.16;83.18;100247.97;4935092;29;20070;-48
2020/12/09 04:05:22;;;;;;;14.52;3.72;;;;;;;2.15;82.85;100254.53;4935303;29;20040;-53
2020/12/09 04:07:50;;;;;;;14.23;1.50;;;;;;;2.13;82.77;100245.84;4935876;29;20070;-49
2020/12/09 04:10:17;;;;;;;10.35;2.72;;;;;;;2.12;82.81;100243.44;4935179;29;20410;-52
2020/12/09 04:12:43;;;;;;;14.40;2.10;;;;;;;2.13;83.22;100245.03;4935205;29;20126;-51
2020/12/09 04:15:10;;;;;;;8.88;2.60;;;;;;;2.11;82.98;100236.34;4935425;29;20127;-51
2020/12/09 04:17:37;;;;;;;9.45;1.92;;;;;;;2.10;83.07;100238.25;4917585;29;20056;-50
2020/12/09 04:20:04;;;;;;;6.32;2.38;;;;;;;2.08;82.74;100237.75;4933197;29;20103;-50
2020/12/09 04:22:31;;;;;;;13.02;3.45;;;;;;;2.06;82.95;100240.00;4944145;29;20098;-54
2020/12/09 04:24:57;;;;;;;6.25;1.98;;;;;;;2.04;82.75;100239.47;4945105;29;20079;-50
2020/12/09 04:27:23;;;;;;;10.68;2.38;;;;;;;2.03;82.80;100234.31;4932463;29;20048;-49
2020/12/09 04:29:49;;;;;;;12.13;2.45;;;;;;;2.03;82.86;100245.22;4933366;29;20123;-52
2020/12/09 04:32:16;;;;;;;9.95;2.17;;;;;;;2.01;82.77;100248.28;4934092;29;20111;-50
2020/12/09 04:34:43;;;;;;;7.18;2.05;;;;;;;2.01;82.95;100239.28;4937067;29;20047;-48
2020/12/09 04:37:10;;;;;;;15.05;2.55;;;;;;;1.98;82.81;100237.13;4948776;29;20130;-54
2020/12/09 04:39:39;;;;;;;8.98;2.00;;;;;;;1.96;82.95;100237.41;4936525;29;20059;-49
2020/12/09 04:42:06;;;;;;;12.23;2.55;;;;;;;1.96;82.91;100233.91;4937478;29;20118;-52
2020/12/09 04:44:32;;;;;;;14.10;3.33;;;;;;;1.94;83.00;100238.84;4937444;29;20071;-49
2020/12/09 04:47:04;;;;;;;11.57;3.55;;;;;;;1.91;82.91;100232.06;4936599;29;20044;-52
2020/12/09 04:49:41;;;;;;;7.82;2.42;;;;;;;1.87;82.83;100224.78;4936538;29;20079;-48
2020/12/09 04:52:16;;;;;;;23.10;2.58;;;;;;;1.85;82.64;100217.69;4937155;29;20149;-53
2020/12/09 04:54:45;;;;;;;14.13;2.00;;;;;;;1.82;83.15;100204.66;4950783;29;20047;-52
2020/12/09 04:57:20;;;;;;;6.38;1.88;;;;;;;1.81;82.80;100205.75;4936532;29;20043;-53
2020/12/09 04:59:58;;;;;;;12.48;1.83;;;;;;;1.81;82.82;100205.75;4937208;29;20126;-50
2020/12/09 05:02:35;;;;;;;5.03;1.73;;;;;;;1.81;82.65;100204.94;4936090;29;20056;-54
2020/12/09 05:05:02;;;;;;;13.25;3.08;;;;;;;1.81;82.94;100204.94;4937129;29;20165;-52
2020/12/09 05:07:37;;;;;;;12.93;2.05;;;;;;;1.80;82.84;100204.13;4943028;29;20077;-48
2020/12/09 05:10:13;;;;;;;5.38;1.48;;;;;;;1.80;83.13;100193.22;4939025;29;20545;-54
2020/12/09 05:12:42;;;;;;;13.32;3.10;;;;;;;1.78;82.87;100189.16;4958426;28;20074;-52
2020/12/09 05:15:16;;;;;;;11.27;3.95;;;;;;;1.80;82.92;100182.31;4937158;28;20047;-52
2020/12/09 05:17:54;;;;;;;15.73;1.70;;;;;;;1.85;83.31;100178.69;4937230;29;20071;-50
2020/12/09 05:20:26;;;;;;;7.97;2.05;;;;;;;1.91;83.06;100174.72;4936582;29;20103;-48
2020/12/09 05:22:56;;;;;;;6.15;1.85;;;;;;;1.95;82.98;100169.50;4953659;29;20086;-50
2020/12/09 05:25:27;;;;;;;8.60;1.67;;;;;;;1.99;83.40;100168.56;4936535;29;20075;-53
2020/12/09 05:27:54;;;;;;;7.00;2.22;;;;;;;2.04;82.94;100170.41;4952217;29;20047;-48
2020/12/09 05:30:44;;;;;;;3.58;1.35;;;;;;;2.08;83.33;100155.03;4936344;29;20123;-55
2020/12/09 05:33:21;;;;;;;6.80;1.63;;;;;;;2.11;83.34;100154.44;4920625;29;20127;-51
2020/12/09 05:36:01;;;;;;;7.20;1.63;;;;;;;2.13;82.87;100158.47;4938559;29;20047;-52
2020/12/09 05:38:29;;;;;;;9.95;2.00;;;;;;;2.17;83.07;100150.50;4935074;29;20139;-51
2020/12/09 05:40:56;;;;;;;8.65;1.27;;;;;;;2.22;82.82;100150.38;4937124;29;20047;-54
2020/12/09 05:43:23;;;;;;;5.95;1.40;;;;;;;2.24;82.91;100159.09;4952193;28;20411;-49
2020/12/09 05:45:51;;;;;;;11.43;1.52;;;;;;;2.27;82.79;100153.00;4935702;29;20135;-52
2020/12/09 05:48:23;;;;;;;4.60;1.50;;;;;;;2.28;82.58;100155.44;4944378;29;20513;-51
2020/12/09 05:50:58;;;;;;;9.60;2.13;;;;;;;2.31;83.00;100160.28;4936255;29;20044;-50
2020/12/09 05:53:26;;;;;;;10.20;1.90;;;;;;;2.34;82.90;100148.75;4935913;29;20073;-49
2020/12/09 05:56:11;;;;;;;11.00;1.80;;;;;;;2.35;82.78;100155.03;4936404;29;20043;-51
2020/12/09 05:58:45;;;;;;;18.92;4.50;;;;;;;2.37;82.47;100152.78;4937925;29;20130;-50
2020/12/09 06:01:15;;;;;;;12.00;2.40;;;;;;;2.37;82.63;100152.78;4949339;29;20035;-50
2020/12/09 06:03:52;;;;;;;9.63;1.85;;;;;;;2.37;82.31;100148.16;4939647;29;20122;-52
2020/12/09 06:06:27;;;;;;;8.48;1.55;;;;;;;2.38;82.77;100155.22;4930786;29;20074;-49
2020/12/09 06:08:56;;;;;;;9.95;1.50;;;;;;;2.38;82.41;100146.22;4935369;29;20083;-50
2020/12/09 06:11:30;;;;;;;6.18;2.03;;;;;;;2.36;82.49;100145.69;4946300;29;20373;-53
2020/12/09 06:13:58;;;;;;;11.73;2.08;;;;;;;2.37;82.66;100155.53;4948563;29;20044;-51
2020/12/09 06:16:25;;;;;;;7.55;1.73;;;;;;;2.36;82.53;100156.63;4936155;29;20044;-53
2020/12/09 06:18:53;;;;;;;8.48;1.35;;;;;;;2.34;82.69;100161.59;4920755;29;20051;-52
2020/12/09 06:21:20;;;;;;;5.22;1.77;;;;;;;2.34;82.59;100164.31;4934949;29;20131;-49
2020/12/09 06:23:53;;;;;;;10.93;2.65;;;;;;;2.33;82.75;100158.06;4941539;29;20094;-49
2020/12/09 06:26:19;;;;;;;11.20;2.10;;;;;;;2.36;82.77;100162.09;4934775;29;20569;-49
2020/12/09 06:28:48;;;;;;;7.57;1.50;;;;;;;2.36;82.54;100162.09;4935944;29;20044;-48
2020/12/09 06:31:15;;;;;;;8.45;1.27;;;;;;;2.37;82.81;100150.88;4935164;29;20058;-48
2020/12/09 06:33:47;;;;;;;5.72;1.25;;;;;;;2.39;82.52;100167.75;4935286;29;20040;-50
2020/12/09 06:36:25;;;;;;;6.00;2.03;;;;;;;2.40;82.49;100160.38;4933723;29;20098;-48
2020/12/09 06:39:17;;;;;;;9.48;2.60;;;;;;;2.40;82.45;100157.66;4935639;29;20521;-49
2020/12/09 06:41:56;;;;;;;6.60;1.30;;;;;;;2.40;83.01;100163.13;4933861;29;20082;-49
2020/12/09 06:44:28;;;;;;;10.88;1.80;;;;;;;2.43;82.94;100157.03;4934204;29;20463;-49
2020/12/09 06:46:55;;;;;;;;;;;;;;;2.41;82.80;100153.78;4944729;29;20043;-50
2020/12/09 06:49:27;;;;;;;6.53;1.30;;;;;;;2.40;82.64;100160.38;4935157;29;19926;-48
2020/12/09 06:52:09;;;;;;;5.78;1.50;;;;;;;2.39;82.72;100145.09;4934851;29;20047;-48
2020/12/09 06:54:46;;;;;;;7.50;2.20;;;;;;;2.41;83.02;100153.78;4934290;29;20122;-48
2020/12/09 06:57:15;;;;;;;11.52;3.33;;;;;;;2.43;82.97;100146.13;4934909;29;20052;-48
2020/12/09 06:59:43;;;;;;;9.50;2.45;;;;;;;2.44;82.88;100147.72;4942600;29;20121;-48
2020/12/09 07:02:10;;;;;;;8.15;2.00;;;;;;;2.45;82.87;100152.09;4937904;29;20561;-48
2020/12/09 07:04:54;;;;;;;7.47;2.10;;;;;;;2.45;82.97;100150.16;4933999;29;20075;-48
2020/12/09 07:07:37;;;;;;;8.60;2.05;;;;;;;2.46;83.24;100140.06;4935460;29;20095;-47
2020/12/09 07:10:18;;;;;;;;;;;;;;;2.47;83.08;100138.91;4935322;29;20075;-48
2020/12/09 07:13:08;;;;;;;5.45;1.65;;;;;;;2.47;82.96;100133.44;4933878;29;20385;-48
2020/12/09 07:15:40;;;;;;;6.97;1.70;;;;;;;2.48;83.26;100132.34;4919247;29;20494;-48
2020/12/09 07:18:06;;;;;;;10.65;1.85;;;;;;;2.48;82.96;100126.88;4938752;29;20146;-51
2020/12/09 07:20:33;;;;;;;4.07;1.73;;;;;;;2.51;82.94;100134.47;4935228;29;20111;-52
2020/12/09 07:23:00;;;;;;;9.52;2.22;;;;;;;2.55;83.06;100127.25;4935882;29;20047;-50
2020/12/09 07:25:26;;;;;;;6.57;1.92;;;;;;;2.57;82.87;100133.22;4945767;29;20090;-50
2020/12/09 07:27:54;;;;;;;8.90;2.13;;;;;;;2.61;82.81;100125.22;4935188;29;20058;-52
2020/12/09 07:30:21;;;;;;;17.10;4.25;;;;;;;2.65;82.92;100116.09;4934681;29;20051;-49
2020/12/09 07:32:48;;;;;;;12.95;2.50;;;;;;;2.67;83.03;100113.88;4947899;29;20501;-48
2020/12/09 07:35:17;;;;;;;6.70;1.80;;;;;;;2.70;82.70;100110.50;4943530;29;20126;-49
2020/12/09 07:37:47;;;;;;;9.90;1.83;;;;;;;2.73;82.69;100111.81;4935239;29;20090;-50
2020/12/09 07:40:31;;;;;;;8.30;2.08;;;;;;;2.73;83.00;100109.91;4934607;29;20694;-52
2020/12/09 07:43:03;;;;;;;8.15;2.22;;;;;;;2.76;83.02;100114.75;4937122;29;20067;-51
2020/12/09 07:45:29;;;;;;;;;;;;;;;2.76;82.67;100112.03;4926177;29;20147;-49
2020/12/09 07:48:03;;;;;;;10.70;2.28;;;;;;;2.77;82.90;100115.56;4934672;29;20030;-51
2020/12/09 07:50:30;;;;;;;7.55;1.42;;;;;;;2.79;82.97;100116.88;4934677;29;20064;-48
2020/12/09 07:52:57;;;;;;;11.50;2.03;;;;;;;2.79;82.97;100105.94;4947979;29;20457;-51
2020/12/09 07:55:25;;;;;;;7.75;1.90;;;;;;;2.80;83.19;100102.09;4933843;29;20569;-47
2020/12/09 07:58:02;;;;;;;14.73;2.65;;;;;;;2.81;82.77;100098.22;4935763;29;20051;-51
2020/12/09 08:00:34;;;;;;;12.80;2.88;;;;;;;2.87;82.99;100093.44;4939501;29;20552;-50
2020/12/09 08:03:00;;;;;;;11.10;2.10;;;;;;;2.89;83.29;100092.03;4932842;29;20074;-53
2020/12/09 08:05:27;;;;;;;11.18;2.70;;;;;;;2.91;83.02;100100.72;4917748;29;20143;-50
2020/12/09 08:07:59;;;;;;;15.48;2.88;;;;;;;2.93;83.17;100103.97;4939497;29;20078;-53
2020/12/09 08:10:29;;;;;;;4.68;2.25;;;;;;;2.95;83.29;100099.00;4937826;29;20048;-49
2020/12/09 08:13:07;;;;;;;6.78;1.83;;;;;;;2.98;82.88;100103.84;4937693;29;20076;-51
2020/12/09 08:15:36;;;;;;;8.77;2.10;;;;;;;3.00;82.66;100095.31;4938640;29;20051;-51
2020/12/09 08:18:04;;;;;;;9.88;3.08;;;;;;;3.00;82.95;100090.66;4934932;29;20138;-49
2020/12/09 08:20:43;;;;;;;8.55;2.30;;;;;;;3.00;83.04;100090.66;4935985;29;20048;-49
2020/12/09 08:23:13;;;;;;;14.45;2.78;;;;;;;3.02;83.04;100082.94;4936748;29;20075;-51
2020/12/09 08:25:53;;;;;;;6.75;2.15;;;;;;;3.04;82.81;100085.41;4937677;29;20043;-48
2020/12/09 08:28:26;;;;;;;14.45;3.35;;;;;;;3.06;83.22;100078.50;4937792;29;20122;-47
2020/12/09 08:30:54;;;;;;;11.88;3.78;;;;;;;3.08;83.10;100078.97;4928478;29;20406;-52
2020/12/09 08:33:30;;;;;;;17.40;6.03;;;;;;;3.11;83.05;100068.53;4933408;29;20040;-49
2020/12/09 08:35:58;;;;;;;9.55;4.18;;;;;;;3.13;83.09;100067.09;4937880;29;20498;-48
2020/12/09 08:38:29;;;;;;;9.27;3.13;;;;;;;3.15;82.78;100064.84;4937369;29;20043;-47
2020/12/09 08:41:12;;;;;;;9.90;2.47;;;;;;;3.17;83.03;100061.81;4935752;29;20039;-48
2020/12/09 08:43:43;;;;;;;13.00;4.55;;;;;;;3.19;83.04;100060.38;4948164;29;20050;-51
2020/12/09 08:46:11;;;;;;;11.60;2.90;;;;;;;3.21;82.83;100054.59;4956286;29;20062;-49
2020/12/09 08:48:39;;;;;;;14.20;3.72;;;;;;;3.23;82.89;100044.94;4945382;29;20043;-50
2020/12/09 08:51:06;;;;;;;22.35;7.07;;;;;;;3.25;83.07;100047.38;4937310;29;20062;-50
2020/12/09 08:53:33;;;;;;;34.47;9.95;;;;;;;3.26;83.06;100043.50;4940577;29;20047;-51
2020/12/09 08:55:59;;;;;;;25.30;9.10;;;;;;;3.27;82.94;100037.75;4936226;29;20078;-49
2020/12/09 08:58:26;;;;;;;30.45;8.85;;;;;;;3.30;83.11;100028.09;4935691;29;20043;-52
2020/12/09 09:00:52;;;;;;;34.85;10.80;;;;;;;3.33;83.31;100032.94;4937024;29;20130;-47
2020/12/09 09:03:25;;;;;;;36.97;10.90;;;;;;;3.35;83.21;100027.97;4936654;29;20079;-51
2020/12/09 09:05:57;;;;;;;58.63;16.55;;;;;;;3.36;82.86;100026.84;4937072;29;20114;-47
2020/12/09 09:08:26;;;;;;;45.45;12.40;;;;;;;3.37;82.91;100020.25;4936085;29;20055;-49
2020/12/09 09:10:52;;;;;;;38.40;11.18;;;;;;;3.39;83.04;100021.53;4933518;29;20040;-50
2020/12/09 09:13:20;;;;;;;33.75;8.55;;;;;;;3.41;82.82;100010.28;4936197;29;20051;-47
2020/12/09 09:15:47;;;;;;;23.55;6.65;;;;;;;3.42;82.85;100009.16;4936147;29;20072;-48
2020/12/09 09:18:14;;;;;;;36.53;8.85;;;;;;;3.43;82.96;100002.56;4949121;28;20071;-52
2020/12/09 09:20:41;;;;;;;23.17;8.48;;;;;;;3.45;83.43;100005.78;4934357;29;20051;-52
2020/12/09 09:23:07;;;;;;;29.55;11.07;;;;;;;3.47;83.04;100007.09;4934673;29;20126;-46
2020/12/09 09:25:34;;;;;;;29.08;11.93;;;;;;;3.51;83.03;100008.09;4930285;29;20118;-51
2020/12/09 09:28:01;;;;;;;35.65;12.88;;;;;;;3.55;83.01;100002.75;4933021;29;20449;-51
2020/12/09 09:30:29;;;;;;;31.65;11.95;;;;;;;3.56;82.86;100001.66;4949111;29;20066;-50
2020/12/09 09:32:56;;;;;;;39.25;13.55;;;;;;;3.59;82.85;100001.84;4938142;29;20044;-51
2020/12/09 09:35:25;;;;;;;22.17;10.80;;;;;;;3.62;82.95;99992.19;4945493;29;20091;-51
2020/12/09 09:37:51;;;;;;;35.35;11.32;;;;;;;3.64;83.08;99977.06;4935239;29;20517;-47
2020/12/09 09:40:17;;;;;;;40.38;12.65;;;;;;;3.69;nan;99965.97;4935540;29;20099;-48
2020/12/09 09:42:50;;;;;;;23.17;8.40;;;;;;;3.74;82.80;99973.22;4944143;29;20039;-52
2020/12/09 09:45:16;;;;;;;23.65;9.32;;;;;;;3.78;82.74;99963.25;4955222;29;20401;-49
2020/12/09 09:47:43;;;;;;;21.17;6.88;;;;;;;3.81;82.83;99959.88;4940839;29;20043;-49
2020/12/09 09:50:09;;;;;;;18.75;9.07;;;;;;;3.86;82.92;99946.03;4937108;29;20048;-50
2020/12/09 09:52:36;;;;;;;21.20;6.68;;;;;;;3.90;82.84;99938.78;4941779;29;20127;-52
2020/12/09 09:55:03;;;;;;;15.48;6.35;;;;;;;3.93;82.62;99938.13;4937416;29;20498;-51
2020/12/09 09:57:29;;;;;;;20.17;5.22;;;;;;;3.97;82.74;99928.13;4941136;29;20403;-53
2020/12/09 09:59:56;;;;;;;22.80;5.13;;;;;;;4.02;82.88;99919.78;4939111;29;20063;-52
2020/12/09 10:02:25;;;;;;;13.50;4.53;;;;;;;4.07;82.86;99927.03;4934576;29;20043;-50
2020/12/09 10:04:54;;;;;;;19.15;4.70;;;;;;;4.11;83.20;99917.84;4938791;29;20040;-49
2020/12/09 10:07:20;;;;;;;14.35;4.68;;;;;;;4.16;83.20;99909.47;4938831;29;20070;-53
2020/12/09 10:09:46;;;;;;;16.58;3.95;;;;;;;4.21;83.23;99905.75;4935491;29;20051;-51
2020/12/09 10:12:13;;;;;;;12.90;2.83;;;;;;;4.26;83.26;99903.66;4935757;29;20127;-51
2020/12/09 10:14:39;;;;;;;16.17;4.28;;;;;;;4.30;83.32;99893.66;4934559;29;20143;-50
2020/12/09 10:17:06;;;;;;;15.65;4.25;;;;;;;4.33;82.98;99892.22;4946427;29;20501;-51
2020/12/09 10:19:34;;;;;;;9.68;3.92;;;;;;;4.36;83.09;99894.31;4935822;29;20047;-51
2020/12/09 10:22:01;;;;;;;15.00;4.72;;;;;;;4.38;83.16;99885.75;4950891;29;20094;-51
2020/12/09 10:24:28;;;;;;;8.23;2.85;;;;;;;4.38;83.36;99878.34;4920001;29;20561;-52
2020/12/09 10:26:54;;;;;;;9.85;2.90;;;;;;;4.40;83.58;99875.25;4942741;29;20099;-53
2020/12/09 10:29:21;;;;;;;10.77;2.65;;;;;;;4.42;83.56;99867.53;4938821;29;20119;-50
2020/12/09 10:31:49;;;;;;;7.80;2.42;;;;;;;4.44;83.56;99866.09;4944104;29;20043;-52
2020/12/09 10:34:18;;;;;;;15.13;4.32;;;;;;;4.46;83.24;99865.75;4937168;29;20083;-50
2020/12/09 10:36:50;;;;;;;14.63;3.63;;;;;;;4.47;83.40;99861.88;4944228;29;20035;-51
2020/12/09 10:39:22;;;;;;;14.15;4.18;;;;;;;4.48;83.75;99844.28;4954296;29;20497;-49
2020/12/09 10:41:49;;;;;;;11.27;2.80;;;;;;;4.50;83.64;99853.78;4944686;29;20040;-49
2020/12/09 10:44:15;;;;;;;12.45;4.22;;;;;;;4.51;83.47;99840.91;4947775;29;20043;-53
2020/12/09 10:46:42;;;;;;;10.38;3.42;;;;;;;4.54;83.57;99837.50;4945978;29;20082;-49
2020/12/09 10:49:10;;;;;;;6.60;3.63;;;;;;;4.57;83.73;99825.91;4935724;29;20043;-50
2020/12/09 10:51:50;;;;;;;20.75;5.50;;;;;;;4.60;83.30;99830.72;4917972;29;20137;-47
2020/12/09 10:54:18;;;;;;;10.48;2.55;;;;;;;4.65;83.17;99822.31;4936481;29;20079;-50
2020/12/09 10:56:45;;;;;;;8.38;2.63;;;;;;;4.69;83.23;99820.50;4935211;29;20043;-51
2020/12/09 10:59:16;;;;;;;9.52;1.98;;;;;;;4.73;82.93;99821.47;4922478;29;20451;-53
2020/12/09 11:01:45;;;;;;;11.52;1.70;;;;;;;4.75;83.21;99805.50;4936294;29;20090;-51
2020/12/09 11:04:12;;;;;;;9.40;1.83;;;;;;;4.80;82.86;99813.53;4946308;29;20482;-49
2020/12/09 11:06:39;;;;;;;8.52;2.05;;;;;;;4.84;82.62;99798.06;4936045;29;20043;-53
2020/12/09 11:09:07;;;;;;;7.40;1.95;;;;;;;4.85;82.86;99788.66;4948484;29;20046;-51
2020/12/09 11:11:34;;;;;;;8.02;1.70;;;;;;;4.85;82.48;99781.25;4945817;29;20042;-47
2020/12/09 11:14:02;;;;;;;9.68;2.10;;;;;;;4.87;82.76;99767.22;4932619;29;20147;-51
2020/12/09 11:16:33;;;;;;;20.45;3.92;;;;;;;4.89;82.46;99759.47;4934053;29;20051;-52
2020/12/09 11:18:59;;;;;;;10.85;2.15;;;;;;;4.90;82.65;99758.31;4915848;29;20496;-51
2020/12/09 11:21:26;;;;;;;7.18;2.15;;;;;;;4.90;82.32;99753.63;4913862;29;20550;-49
2020/12/09 11:23:53;;;;;;;12.15;2.38;;;;;;;4.92;82.02;99736.88;4914297;29;20542;-51
2020/12/09 11:26:22;;;;;;;12.32;2.17;;;;;;;4.93;81.95;99730.22;4915285;29;20134;-47
2020/12/09 11:28:50;;;;;;;6.50;2.47;;;;;;;4.93;82.05;99724.75;4915943;29;20036;-52
2020/12/09 11:31:21;;;;;;;13.57;3.00;;;;;;;4.93;82.02;99722.81;4915162;29;20052;-48
2020/12/09 11:33:51;;;;;;;12.65;2.58;;;;;;;4.95;82.45;99718.94;4898612;29;20035;-47
2020/12/09 11:36:36;;;;;;;9.25;2.15;;;;;;;4.97;81.97;99703.75;4911933;29;20247;-48